Airfield :
LOGIN :

Register | Disclaimer

   EN    FR    IT 

 










Legend :    VFR   Marginal VFR   IFR   Intensive IFR   Very Intensive IFR
Visi :
Ceiling :
>= 8 km
>= 3000ft
5 to 8 km
1000 to 3000 ft
1500m to 5 km
500 to 1000 ft
800 to 1500m
200 to 500 ft
< 800m
< 200 ft
Symbols :   Thunderstorms  Fog  Heavy snow  Heavy precipitations  Wind > 20 kt
SIGMETs :     Misc.  Thunderstorms  Icing  Turbulence  Mountain Waves  Volcanic Ashes






- Airport Elevation : 82 ft
- IATA code : ALG


DAAG - Alger Houari Boumedienne

CURRENT METAR :
  • 151500Z 01007KT CAVOK 17/13 Q1017

EXPIRED METARs :
  • 151430Z 03006KT 360V070 CAVOK 18/13 Q1016
  • 151400Z 03006KT 340V070 CAVOK 18/12 Q1016
  • 151330Z 03005KT 360V080 CAVOK 18/13 Q1017
  • 151300Z 04005KT 350V080 CAVOK 19/13 Q1017
  • 151230Z 10003KT 060V160 CAVOK 19/12 Q1017

TAF TAF DAAG
Valid from the 15 at 12:00 until the 16 at 12:00 UTC


151100Z 1512/1612 03006KT 8000 FEW026 SCT200
TEMPO 1512/1514 4000 BR
BECMG 1521/1524 18014KT
PROB40
TEMPO 1600/1612 18015G30KT



MET'MAP, your aeronautical weather chart ! - Copyright ORBIFLY December 2007 - Disclaimer

ORBIFLY MET'MAP TEAM :

Programming & Development : Alexandra Zaïnal
Concept & original design : Baudouin d'Aumeries
Assistance for programming : Marc-Olivier Méhu
Technical & hardware support : Manuel Goepfert

Contact : metmap@orbifly.com




SOURCES & CREDITS :

   NOAA